createdAt,value
2023-02-23T00:01:25.087Z,20.55
2023-02-23T00:03:57.871Z,19.23
2023-02-23T00:06:32.580Z,20.75
2023-02-23T00:09:06.616Z,20.35
2023-02-23T00:11:36.601Z,18.95
2023-02-23T00:14:08.324Z,20.23
2023-02-23T00:16:38.201Z,20.50
2023-02-23T00:19:08.395Z,20.80
2023-02-23T00:21:40.891Z,19.67
2023-02-23T00:24:12.974Z,20.58
2023-02-23T00:26:45.445Z,20.35
2023-02-23T00:29:18.354Z,21.98
2023-02-23T00:31:49.281Z,20.45
2023-02-23T00:34:23.633Z,20.95
2023-02-23T00:36:57.348Z,20.05
2023-02-23T00:39:29.372Z,19.30
2023-02-23T00:42:02.844Z,18.95
2023-02-23T00:44:34.083Z,20.27
2023-02-23T00:47:05.230Z,19.08
2023-02-23T00:49:35.234Z,19.58
2023-02-23T00:52:08.212Z,19.08
2023-02-23T00:54:37.967Z,20.25
2023-02-23T00:57:07.744Z,19.50
2023-02-23T00:59:37.709Z,20.58
2023-02-23T01:02:07.599Z,19.17
2023-02-23T01:04:37.340Z,20.10
2023-02-23T01:07:12.969Z,20.90
2023-02-23T01:09:43.675Z,20.63
2023-02-23T01:12:13.439Z,20.63
2023-02-23T01:14:43.236Z,21.83
2023-02-23T01:17:12.978Z,21.02
2023-02-23T01:19:42.735Z,24.35
2023-02-23T01:22:15.186Z,23.85
2023-02-23T01:24:45.080Z,21.67
2023-02-23T01:27:14.983Z,23.40
2023-02-23T01:29:44.722Z,22.33
2023-02-23T01:32:14.601Z,24.33
2023-02-23T01:34:44.366Z,23.65
2023-02-23T01:37:16.813Z,22.83
2023-02-23T01:39:46.564Z,23.77
2023-02-23T01:42:17.047Z,23.05
2023-02-23T01:45:23.953Z,23.10
2023-02-23T01:47:55.496Z,24.73
2023-02-23T01:50:27.028Z,22.92
2023-02-23T01:53:00.187Z,23.95
2023-02-23T01:55:30.611Z,24.33
2023-02-23T01:58:07.262Z,24.80
2023-02-23T02:00:39.559Z,24.45
2023-02-23T02:03:14.003Z,25.30
2023-02-23T02:05:45.558Z,23.65
2023-02-23T02:08:19.227Z,24.98
2023-02-23T02:10:56.022Z,24.17
2023-02-23T02:13:29.476Z,24.63
2023-02-23T02:16:28.266Z,24.30
2023-02-23T02:19:30.855Z,23.10
2023-02-23T02:22:39.710Z,22.75
2023-02-23T02:25:43.156Z,23.77
2023-02-23T02:28:54.687Z,24.38
2023-02-23T02:31:46.139Z,22.85
2023-02-23T02:34:57.278Z,23.98
2023-02-23T02:37:38.931Z,23.92
2023-02-23T02:40:21.350Z,23.95
2023-02-23T02:43:10.447Z,23.83
2023-02-23T02:45:51.780Z,24.33
2023-02-23T02:48:33.291Z,24.63
2023-02-23T02:51:10.130Z,24.60
2023-02-23T02:53:48.003Z,24.98
2023-02-23T02:56:20.270Z,23.65
2023-02-23T02:58:50.675Z,25.30
2023-02-23T03:01:33.969Z,25.00
2023-02-23T03:04:32.555Z,24.77
2023-02-23T03:07:20.943Z,25.38
2023-02-23T03:10:11.325Z,25.00
2023-02-23T03:12:59.017Z,25.08
2023-02-23T03:15:57.767Z,23.27
2023-02-23T03:18:56.393Z,23.27
2023-02-23T03:21:44.558Z,24.35
2023-02-23T03:24:34.334Z,25.73
2023-02-23T03:27:23.641Z,23.80
2023-02-23T03:30:12.180Z,25.65
2023-02-23T03:33:01.364Z,26.45
2023-02-23T03:35:49.799Z,27.15
2023-02-23T03:38:35.756Z,24.95
2023-02-23T03:41:20.430Z,23.73
2023-02-23T03:46:51.684Z,22.83
2023-02-23T03:49:35.890Z,22.58
2023-02-23T03:52:23.470Z,22.58
2023-02-23T03:55:11.367Z,23.88
2023-02-23T03:57:55.347Z,23.75
2023-02-23T04:00:46.306Z,22.37
2023-02-23T04:03:31.519Z,22.52
2023-02-23T04:06:14.011Z,23.85
2023-02-23T04:08:56.764Z,21.00
2023-02-23T04:11:45.812Z,23.70
2023-02-23T04:14:19.366Z,22.67
2023-02-23T04:16:49.478Z,22.97
2023-02-23T04:19:19.229Z,21.67
2023-02-23T04:21:49.002Z,22.63
2023-02-23T04:24:18.800Z,22.83
2023-02-23T04:26:48.532Z,23.02
2023-02-23T04:29:18.584Z,22.40
2023-02-23T04:31:52.101Z,22.55
2023-02-23T04:34:21.912Z,22.57
2023-02-23T04:36:52.192Z,22.30
2023-02-23T04:39:21.918Z,22.67
2023-02-23T04:41:51.675Z,22.38
2023-02-23T04:44:21.580Z,21.23
2023-02-23T04:46:53.908Z,22.52
2023-02-23T04:49:23.840Z,22.63
2023-02-23T04:51:53.570Z,22.67
2023-02-23T04:54:23.304Z,21.50
2023-02-23T04:56:53.029Z,21.13
2023-02-23T04:59:22.806Z,21.27
2023-02-23T05:01:55.228Z,21.75
2023-02-23T05:04:25.222Z,20.85
2023-02-23T05:06:55.294Z,20.98
2023-02-23T05:09:25.050Z,22.70
2023-02-23T05:11:54.798Z,22.25
2023-02-23T05:14:25.058Z,22.20
2023-02-23T05:16:57.403Z,22.77
2023-02-23T05:19:27.250Z,23.17
2023-02-23T05:21:57.007Z,22.75
2023-02-23T05:24:26.745Z,23.52
2023-02-23T05:26:56.641Z,21.67
2023-02-23T05:29:26.602Z,23.05
2023-02-23T05:31:59.090Z,21.77
2023-02-23T05:34:29.170Z,22.52
2023-02-23T05:36:58.938Z,21.73
2023-02-23T05:39:28.752Z,22.90
2023-02-23T05:41:58.513Z,23.55
2023-02-23T05:44:28.358Z,23.10
2023-02-23T05:47:00.947Z,23.45
2023-02-23T05:49:31.625Z,23.75
2023-02-23T05:52:01.450Z,23.65
2023-02-23T05:54:31.588Z,22.80
2023-02-23T05:57:01.958Z,23.02
2023-02-23T05:59:32.128Z,23.20
2023-02-23T06:02:04.826Z,23.55
2023-02-23T06:04:35.034Z,24.52
2023-02-23T06:07:04.803Z,24.05
2023-02-23T06:09:34.642Z,22.63
2023-02-23T06:12:04.583Z,22.83
2023-02-23T06:14:35.205Z,22.90
2023-02-23T06:17:08.272Z,23.58
2023-02-23T06:19:38.069Z,23.88
2023-02-23T06:22:07.834Z,25.00
2023-02-23T06:24:37.620Z,26.02
2023-02-23T06:27:07.348Z,25.02
2023-02-23T06:29:37.431Z,24.98
2023-02-23T06:32:09.842Z,23.40
2023-02-23T06:34:40.522Z,24.60
2023-02-23T06:37:10.440Z,24.35
2023-02-23T06:39:40.284Z,24.77
2023-02-23T06:42:10.045Z,23.02
2023-02-23T06:44:40.144Z,23.52
2023-02-23T06:47:12.474Z,24.45
2023-02-23T06:49:42.622Z,22.98
2023-02-23T06:52:13.541Z,24.38
2023-02-23T06:54:43.327Z,23.13
2023-02-23T06:57:13.510Z,24.10
2023-02-23T06:59:43.246Z,24.00
2023-02-23T07:02:16.960Z,24.33
2023-02-23T07:04:47.191Z,23.88
2023-02-23T07:07:17.474Z,22.80
2023-02-23T07:09:47.255Z,24.92
2023-02-23T07:12:17.015Z,23.00
2023-02-23T07:14:46.742Z,22.48
2023-02-23T07:17:19.367Z,23.10
2023-02-23T07:19:49.069Z,22.50
2023-02-23T07:22:18.826Z,22.80
2023-02-23T07:24:48.886Z,23.30
2023-02-23T07:27:18.885Z,23.25
2023-02-23T07:29:48.858Z,23.08
2023-02-23T07:32:21.286Z,23.58
2023-02-23T07:34:53.657Z,23.90
2023-02-23T07:37:23.990Z,23.23
2023-02-23T07:39:53.725Z,22.40
2023-02-23T07:42:23.483Z,23.45
2023-02-23T07:44:53.236Z,23.80
2023-02-23T07:47:31.101Z,22.08
2023-02-23T07:50:03.522Z,22.45
2023-02-23T07:52:33.323Z,21.67
2023-02-23T07:55:03.105Z,21.13
2023-02-23T07:57:32.940Z,21.05
2023-02-23T08:00:02.916Z,21.58
2023-02-23T08:02:35.366Z,20.55
2023-02-23T08:05:05.306Z,21.35
2023-02-23T08:07:35.291Z,20.58
2023-02-23T08:10:05.144Z,22.08
2023-02-23T08:12:36.966Z,24.25
2023-02-23T08:15:08.441Z,23.30
2023-02-23T08:17:41.500Z,21.25
2023-02-23T08:20:12.738Z,20.73
2023-02-23T08:22:49.265Z,19.15
2023-02-23T08:25:20.320Z,20.88
2023-02-23T08:27:51.988Z,20.95
2023-02-23T08:30:23.353Z,21.48
2023-02-23T08:32:55.873Z,20.25
2023-02-23T08:35:25.587Z,19.73
2023-02-23T08:37:57.122Z,20.80
2023-02-23T08:40:26.951Z,19.73
2023-02-23T08:42:56.652Z,20.13
2023-02-23T08:45:29.503Z,18.90
2023-02-23T08:48:01.833Z,18.77
2023-02-23T08:50:31.602Z,18.48
2023-02-23T08:53:01.330Z,18.02
2023-02-23T08:55:31.033Z,18.15
2023-02-23T08:58:01.277Z,17.50
2023-02-23T09:00:31.414Z,16.58
2023-02-23T09:03:05.241Z,16.10
2023-02-23T09:05:35.477Z,13.82
2023-02-23T09:08:05.539Z,14.35
2023-02-23T09:10:35.816Z,15.07
2023-02-23T09:13:05.581Z,21.08
2023-02-23T09:15:35.602Z,14.52
2023-02-23T09:18:08.415Z,14.30
2023-02-23T09:20:38.607Z,13.95
2023-02-23T09:23:08.417Z,13.20
2023-02-23T09:25:43.304Z,12.93
2023-02-23T09:28:14.750Z,12.50
2023-02-23T09:30:45.742Z,12.25
2023-02-23T09:33:18.311Z,11.40
2023-02-23T09:35:48.014Z,11.98
2023-02-23T09:38:17.883Z,12.43
2023-02-23T09:40:49.971Z,11.98
2023-02-23T09:43:25.381Z,10.68
2023-02-23T09:45:59.909Z,9.70
2023-02-23T09:48:32.822Z,10.27
2023-02-23T09:51:03.947Z,9.77
2023-02-23T09:53:38.899Z,9.38
2023-02-23T09:56:14.222Z,10.35
2023-02-23T09:58:44.683Z,8.90
2023-02-23T10:01:46.327Z,8.50
2023-02-23T10:04:23.589Z,9.00
2023-02-23T10:07:00.647Z,7.57
2023-02-23T10:09:52.129Z,24.75
2023-02-23T10:12:28.863Z,6.95
2023-02-23T10:15:13.782Z,6.60
2023-02-23T10:17:51.713Z,7.88
2023-02-23T10:20:30.216Z,7.20
2023-02-23T10:23:06.916Z,6.97
2023-02-23T10:25:40.823Z,6.60
2023-02-23T10:28:15.238Z,5.55
2023-02-23T10:30:45.382Z,5.43
2023-02-23T10:33:19.296Z,5.18
2023-02-23T10:36:07.386Z,3.92
2023-02-23T10:38:42.378Z,4.45
2023-02-23T10:41:15.059Z,4.22
2023-02-23T10:43:45.244Z,4.20
2023-02-23T10:46:24.371Z,3.75
2023-02-23T10:48:57.100Z,4.60
2023-02-23T10:51:35.455Z,4.93
2023-02-23T10:54:47.754Z,5.22
2023-02-23T10:57:27.323Z,5.75
2023-02-23T11:00:12.115Z,5.57
2023-02-23T11:02:42.403Z,5.22
2023-02-23T11:05:34.922Z,5.43
2023-02-23T11:08:30.202Z,5.07
2023-02-23T11:11:25.481Z,8.90
2023-02-23T11:13:55.650Z,7.05
2023-02-23T11:16:27.692Z,9.23
2023-02-23T11:18:59.795Z,9.27
2023-02-23T11:21:33.618Z,7.18
2023-02-23T11:24:09.430Z,7.25
2023-02-23T11:26:44.275Z,7.60
2023-02-23T11:29:19.333Z,6.40
2023-02-23T11:31:53.758Z,4.00
2023-02-23T11:34:31.715Z,3.17
2023-02-23T11:37:05.331Z,3.13
2023-02-23T11:39:35.773Z,3.17
2023-02-23T11:42:25.290Z,3.40
2023-02-23T11:45:04.887Z,3.08
2023-02-23T11:47:36.391Z,3.20
2023-02-23T11:50:07.347Z,3.45
2023-02-23T11:52:38.379Z,3.53
2023-02-23T11:55:10.574Z,4.13
2023-02-23T11:57:43.178Z,4.35
2023-02-23T12:00:15.947Z,4.07
2023-02-23T12:02:55.471Z,3.70
2023-02-23T12:05:27.415Z,3.55
2023-02-23T12:08:02.778Z,4.00
2023-02-23T12:10:37.613Z,3.53
2023-02-23T12:13:28.223Z,3.28
2023-02-23T12:16:02.452Z,3.22
2023-02-23T12:18:44.974Z,3.05
2023-02-23T12:21:35.685Z,3.30
2023-02-23T12:24:20.847Z,3.40
2023-02-23T12:26:55.778Z,3.80
2023-02-23T12:29:34.451Z,4.03
2023-02-23T12:32:08.413Z,3.55
2023-02-23T12:34:42.894Z,4.00
2023-02-23T12:39:54.907Z,3.78
2023-02-23T12:42:31.094Z,4.03
2023-02-23T12:45:07.595Z,3.35
2023-02-23T12:47:41.984Z,3.30
2023-02-23T12:52:49.951Z,3.13
2023-02-23T12:55:33.678Z,3.40
2023-02-23T12:58:10.492Z,2.90
2023-02-23T13:00:50.705Z,3.42
2023-02-23T13:03:48.796Z,2.75
2023-02-23T13:06:25.426Z,3.30
2023-02-23T13:09:03.403Z,3.00
2023-02-23T13:11:51.600Z,2.80
2023-02-23T13:14:26.019Z,3.03
2023-02-23T13:19:38.211Z,3.17
2023-02-23T13:22:26.336Z,3.55
2023-02-23T13:25:00.147Z,3.05
2023-02-23T13:27:34.892Z,3.75
2023-02-23T13:30:05.689Z,3.65
2023-02-23T13:32:39.280Z,2.75
2023-02-23T13:35:15.779Z,3.20
2023-02-23T13:37:48.564Z,3.53
2023-02-23T13:40:27.891Z,3.17
2023-02-23T13:43:07.734Z,2.92
2023-02-23T13:45:52.164Z,3.50
2023-02-23T13:48:33.439Z,2.97
2023-02-23T13:51:09.198Z,3.58
2023-02-23T13:53:44.444Z,3.38
2023-02-23T13:56:19.954Z,3.38
2023-02-23T13:58:53.980Z,3.80
2023-02-23T14:01:29.110Z,5.10
2023-02-23T14:04:04.031Z,5.68
2023-02-23T14:06:35.822Z,5.47
2023-02-23T14:09:12.022Z,5.35
2023-02-23T14:11:48.743Z,5.63
2023-02-23T14:14:44.896Z,4.78
2023-02-23T14:17:44.246Z,5.20
2023-02-23T14:20:30.062Z,4.80
2023-02-23T14:23:31.636Z,4.70
2023-02-23T14:26:19.697Z,4.75
2023-02-23T14:29:11.085Z,4.82
2023-02-23T14:31:41.042Z,5.13
2023-02-23T14:34:15.578Z,5.20
2023-02-23T14:36:48.540Z,4.95
2023-02-23T14:39:27.484Z,4.50
2023-02-23T14:41:59.184Z,4.63
2023-02-23T14:44:32.795Z,5.30
2023-02-23T14:47:05.536Z,5.28
2023-02-23T14:49:40.437Z,5.32
2023-02-23T14:52:20.849Z,5.20
2023-02-23T14:54:50.718Z,5.53
2023-02-23T14:57:23.360Z,6.07
2023-02-23T15:00:01.747Z,5.18
2023-02-23T15:02:34.309Z,5.90
2023-02-23T15:05:17.636Z,5.57
2023-02-23T15:07:51.853Z,5.47
2023-02-23T15:10:27.127Z,5.47
2023-02-23T15:12:57.658Z,5.18
2023-02-23T15:15:30.842Z,4.57
2023-02-23T15:18:04.643Z,5.18
2023-02-23T15:20:36.759Z,4.45
2023-02-23T15:23:09.370Z,4.95
2023-02-23T15:25:44.488Z,4.80
2023-02-23T15:28:25.968Z,4.78
2023-02-23T15:30:57.392Z,5.13
2023-02-23T15:33:28.627Z,5.28
2023-02-23T15:36:08.395Z,5.55
2023-02-23T15:38:45.463Z,5.20
2023-02-23T15:41:23.123Z,5.68
2023-02-23T15:43:53.271Z,5.78
2023-02-23T15:46:27.288Z,5.65
2023-02-23T15:49:03.304Z,5.50
2023-02-23T15:51:38.701Z,5.57
2023-02-23T15:54:20.634Z,5.80
2023-02-23T15:56:54.630Z,6.07
2023-02-23T15:59:29.038Z,6.20
2023-02-23T16:04:36.716Z,6.22
2023-02-23T16:07:17.863Z,6.82
2023-02-23T16:09:55.415Z,6.65
2023-02-23T16:12:29.168Z,5.82
2023-02-23T16:15:02.446Z,7.10
2023-02-23T16:17:37.611Z,6.00
2023-02-23T16:20:18.813Z,5.95
2023-02-23T16:22:54.947Z,7.22
2023-02-23T16:25:29.031Z,7.30
2023-02-23T16:28:03.530Z,7.00
2023-02-23T16:30:42.953Z,7.47
2023-02-23T16:33:20.843Z,7.65
2023-02-23T16:35:52.459Z,8.02
2023-02-23T16:38:28.003Z,7.90
2023-02-23T16:41:00.371Z,9.25
2023-02-23T16:43:31.634Z,8.90
2023-02-23T16:46:01.678Z,9.40
2023-02-23T16:48:31.602Z,9.57
2023-02-23T16:51:01.469Z,11.68
2023-02-23T16:53:31.227Z,11.00
2023-02-23T16:56:12.317Z,11.07
2023-02-23T16:58:43.434Z,10.30
2023-02-23T17:01:18.049Z,9.52
2023-02-23T17:03:53.168Z,9.55
2023-02-23T17:11:47.291Z,10.05
2023-02-23T17:14:25.797Z,9.75
2023-02-23T17:16:56.210Z,9.82
2023-02-23T17:19:26.145Z,10.27
2023-02-23T17:21:56.032Z,10.68
2023-02-23T17:24:26.312Z,9.75
2023-02-23T17:26:58.740Z,10.15
2023-02-23T17:29:28.607Z,10.32
2023-02-23T17:32:01.296Z,10.30
2023-02-23T17:34:32.278Z,10.18
2023-02-23T17:37:02.022Z,9.60
2023-02-23T17:39:31.873Z,10.27
2023-02-23T17:42:04.308Z,11.30
2023-02-23T17:44:34.133Z,10.80
2023-02-23T17:47:03.906Z,10.95
2023-02-23T17:49:33.752Z,10.90
2023-02-23T17:52:03.650Z,11.15
2023-02-23T17:54:33.449Z,11.25
2023-02-23T17:57:06.255Z,12.43
2023-02-23T17:59:36.026Z,12.00
2023-02-23T18:02:06.679Z,12.48
2023-02-23T18:04:36.683Z,12.30
2023-02-23T18:07:06.467Z,11.95
2023-02-23T18:09:36.264Z,12.52
2023-02-23T18:12:09.761Z,12.85
2023-02-23T18:14:40.383Z,13.77
2023-02-23T18:17:10.132Z,16.92
2023-02-23T18:19:39.961Z,18.33
2023-02-23T18:22:09.908Z,20.30
2023-02-23T18:24:41.467Z,21.15
2023-02-23T18:27:14.604Z,24.30
2023-02-23T18:29:44.356Z,20.13
2023-02-23T18:32:14.686Z,18.42
2023-02-23T18:34:44.560Z,17.30
2023-02-23T18:37:21.470Z,21.23
2023-02-23T18:39:56.877Z,24.90
2023-02-23T18:42:31.598Z,18.73
2023-02-23T18:45:01.352Z,20.27
2023-02-23T18:47:31.096Z,24.80
2023-02-23T18:50:01.642Z,20.40
2023-02-23T18:52:31.527Z,20.02
2023-02-23T18:55:01.362Z,20.73
2023-02-23T18:57:35.448Z,18.17
2023-02-23T19:00:10.478Z,16.30
2023-02-23T19:02:41.442Z,15.63
2023-02-23T19:05:12.931Z,17.25
2023-02-23T19:07:43.623Z,16.90
2023-02-23T19:10:16.343Z,17.88
2023-02-23T19:12:48.758Z,17.17
2023-02-23T19:15:18.580Z,16.25
2023-02-23T19:17:48.293Z,15.50
2023-02-23T19:20:18.357Z,13.73
2023-02-23T19:22:49.755Z,14.57
2023-02-23T19:25:19.635Z,13.90
2023-02-23T19:27:52.326Z,13.35
2023-02-23T19:30:22.253Z,13.00
2023-02-23T19:32:52.169Z,14.30
2023-02-23T19:35:22.505Z,15.73
2023-02-23T19:37:54.467Z,14.05
2023-02-23T19:40:28.580Z,13.82
2023-02-23T19:43:00.975Z,14.43
2023-02-23T19:45:30.812Z,14.55
2023-02-23T19:48:00.654Z,14.20
2023-02-23T19:50:31.615Z,14.15
2023-02-23T19:53:01.430Z,14.93
2023-02-23T19:55:31.143Z,16.65
2023-02-23T19:58:03.445Z,14.40
2023-02-23T20:00:33.263Z,14.48
2023-02-23T20:03:06.395Z,13.25
2023-02-23T20:05:43.209Z,13.73
2023-02-23T20:08:13.031Z,13.35
2023-02-23T20:10:42.947Z,13.73
2023-02-23T20:13:15.706Z,14.65
2023-02-23T20:15:46.269Z,12.73
2023-02-23T20:18:16.109Z,13.57
2023-02-23T20:20:46.608Z,15.35
2023-02-23T20:23:16.432Z,17.42
2023-02-23T20:25:46.308Z,19.63
2023-02-23T20:28:18.719Z,16.30
2023-02-23T20:30:49.632Z,15.15
2023-02-23T20:33:19.455Z,15.18
2023-02-23T20:35:49.247Z,15.98
2023-02-23T20:38:19.016Z,15.30
2023-02-23T20:40:49.066Z,15.57
2023-02-23T20:43:23.425Z,17.48
2023-02-23T20:45:53.235Z,17.33
2023-02-23T20:48:23.067Z,17.30
2023-02-23T20:50:56.235Z,17.80
2023-02-23T20:53:29.219Z,18.45
2023-02-23T20:55:59.032Z,19.00
2023-02-23T20:58:31.473Z,20.30
2023-02-23T21:01:03.449Z,20.15
2023-02-23T21:03:33.391Z,18.00
2023-02-23T21:06:03.298Z,18.85
2023-02-23T21:08:33.466Z,21.23
2023-02-23T21:11:07.785Z,20.38
2023-02-23T21:13:40.225Z,20.30
2023-02-23T21:16:10.848Z,19.10
2023-02-23T21:18:40.674Z,19.52
2023-02-23T21:21:13.876Z,19.48
2023-02-23T21:23:49.251Z,20.52
2023-02-23T21:26:21.673Z,20.67
2023-02-23T21:28:54.256Z,23.05
2023-02-23T21:31:24.424Z,24.10
2023-02-23T21:33:54.311Z,21.95
2023-02-23T21:36:24.038Z,19.98
2023-02-23T21:38:53.935Z,18.33
2023-02-23T21:41:23.881Z,20.02
2023-02-23T21:43:56.514Z,19.30
2023-02-23T21:46:27.788Z,20.02
2023-02-23T21:48:57.645Z,18.27
2023-02-23T21:51:28.038Z,20.77
2023-02-23T21:54:00.131Z,20.35
2023-02-23T21:56:30.747Z,20.45
2023-02-23T21:59:03.499Z,19.70
2023-02-23T22:01:36.429Z,19.42
2023-02-23T22:04:08.477Z,19.95
2023-02-23T22:06:41.640Z,20.38
2023-02-23T22:09:15.884Z,19.90
2023-02-23T22:11:47.780Z,20.92
2023-02-23T22:14:22.444Z,21.48
2023-02-23T22:16:52.572Z,21.73
2023-02-23T22:19:22.585Z,21.80
2023-02-23T22:21:53.357Z,23.42
2023-02-23T22:24:23.379Z,21.98
2023-02-23T22:26:54.510Z,23.42
2023-02-23T22:29:28.415Z,23.80
2023-02-23T22:31:58.448Z,23.50
2023-02-23T22:34:28.479Z,22.90
2023-02-23T22:36:58.372Z,22.48
2023-02-23T22:39:33.434Z,20.83
2023-02-23T22:42:09.385Z,21.30
2023-02-23T22:44:43.028Z,21.33
2023-02-23T22:47:13.675Z,22.13
2023-02-23T22:49:43.548Z,20.05
2023-02-23T22:52:13.404Z,22.10
2023-02-23T22:54:45.480Z,20.85
2023-02-23T22:57:15.424Z,21.58
2023-02-23T22:59:59.994Z,20.35
2023-02-23T23:02:32.433Z,20.63
2023-02-23T23:05:02.579Z,22.67
2023-02-23T23:07:33.684Z,21.40
2023-02-23T23:10:05.822Z,20.20
2023-02-23T23:12:36.578Z,21.50
2023-02-23T23:15:14.966Z,20.83
2023-02-23T23:17:48.893Z,21.58
2023-02-23T23:20:23.302Z,21.88
2023-02-23T23:22:53.117Z,21.20
2023-02-23T23:25:25.671Z,20.02
2023-02-23T23:27:55.804Z,19.83
2023-02-23T23:30:29.212Z,21.85
2023-02-23T23:33:01.235Z,20.33
2023-02-23T23:35:34.410Z,20.73
2023-02-23T23:38:06.245Z,22.17
2023-02-23T23:40:37.389Z,22.38
2023-02-23T23:43:07.898Z,22.10
2023-02-23T23:45:43.957Z,22.90
2023-02-23T23:48:14.502Z,23.50
2023-02-23T23:50:45.060Z,23.55
2023-02-23T23:53:14.855Z,23.88
2023-02-23T23:55:45.408Z,25.60
2023-02-23T23:58:18.518Z,25.27
